sensor_id;sensor_type;location;lat;lon;timestamp;temperature;humidity
68977;SHT31;56029;52.568;13.588;2023-02-01T00:01:33;3.63;96.26
68977;SHT31;56029;52.568;13.588;2023-02-01T00:03:59;3.66;95.70
68977;SHT31;56029;52.568;13.588;2023-02-01T00:06:24;3.83;94.70
68977;SHT31;56029;52.568;13.588;2023-02-01T00:08:54;3.79;94.54
68977;SHT31;56029;52.568;13.588;2023-02-01T00:11:20;3.80;94.60
68977;SHT31;56029;52.568;13.588;2023-02-01T00:13:45;3.82;94.51
68977;SHT31;56029;52.568;13.588;2023-02-01T00:16:14;3.76;94.90
68977;SHT31;56029;52.568;13.588;2023-02-01T00:18:42;3.76;94.66
68977;SHT31;56029;52.568;13.588;2023-02-01T00:21:10;3.73;94.63
68977;SHT31;56029;52.568;13.588;2023-02-01T00:23:36;3.73;95.08
68977;SHT31;56029;52.568;13.588;2023-02-01T00:26:09;3.76;94.73
68977;SHT31;56029;52.568;13.588;2023-02-01T00:28:36;3.69;95.05
68977;SHT31;56029;52.568;13.588;2023-02-01T00:31:03;3.59;95.25
68977;SHT31;56029;52.568;13.588;2023-02-01T00:33:30;3.55;95.54
68977;SHT31;56029;52.568;13.588;2023-02-01T00:35:57;3.58;95.24
68977;SHT31;56029;52.568;13.588;2023-02-01T00:38:23;3.51;95.46
68977;SHT31;56029;52.568;13.588;2023-02-01T00:40:48;3.62;94.67
68977;SHT31;56029;52.568;13.588;2023-02-01T00:43:14;3.70;94.11
68977;SHT31;56029;52.568;13.588;2023-02-01T00:45:39;3.73;93.60
68977;SHT31;56029;52.568;13.588;2023-02-01T00:48:05;3.73;93.28
68977;SHT31;56029;52.568;13.588;2023-02-01T00:50:30;3.79;92.77
68977;SHT31;56029;52.568;13.588;2023-02-01T00:52:56;3.83;92.73
68977;SHT31;56029;52.568;13.588;2023-02-01T00:55:21;3.94;92.08
68977;SHT31;56029;52.568;13.588;2023-02-01T00:57:47;3.99;91.98
68977;SHT31;56029;52.568;13.588;2023-02-01T01:00:13;4.01;91.64
68977;SHT31;56029;52.568;13.588;2023-02-01T01:02:38;4.06;91.51
68977;SHT31;56029;52.568;13.588;2023-02-01T01:05:04;4.07;91.09
68977;SHT31;56029;52.568;13.588;2023-02-01T01:07:30;4.10;91.36
68977;SHT31;56029;52.568;13.588;2023-02-01T01:09:55;4.16;90.82
68977;SHT31;56029;52.568;13.588;2023-02-01T01:12:21;4.14;91.15
68977;SHT31;56029;52.568;13.588;2023-02-01T01:14:46;4.17;90.62
68977;SHT31;56029;52.568;13.588;2023-02-01T01:17:12;4.06;91.70
68977;SHT31;56029;52.568;13.588;2023-02-01T01:19:37;3.97;91.76
68977;SHT31;56029;52.568;13.588;2023-02-01T01:22:03;3.93;92.36
68977;SHT31;56029;52.568;13.588;2023-02-01T01:24:28;3.90;92.16
68977;SHT31;56029;52.568;13.588;2023-02-01T01:26:54;3.86;92.50
68977;SHT31;56029;52.568;13.588;2023-02-01T01:29:19;3.85;92.52
68977;SHT31;56029;52.568;13.588;2023-02-01T01:31:45;3.82;92.90
68977;SHT31;56029;52.568;13.588;2023-02-01T01:34:10;3.87;92.26
68977;SHT31;56029;52.568;13.588;2023-02-01T01:36:36;3.93;92.23
68977;SHT31;56029;52.568;13.588;2023-02-01T01:39:02;3.94;91.81
68977;SHT31;56029;52.568;13.588;2023-02-01T01:41:31;3.89;92.45
68977;SHT31;56029;52.568;13.588;2023-02-01T01:44:00;3.79;92.84
68977;SHT31;56029;52.568;13.588;2023-02-01T01:46:29;3.72;93.30
68977;SHT31;56029;52.568;13.588;2023-02-01T01:49:10;3.68;93.21
68977;SHT31;56029;52.568;13.588;2023-02-01T01:51:40;3.69;92.99
68977;SHT31;56029;52.568;13.588;2023-02-01T01:54:29;3.72;92.35
68977;SHT31;56029;52.568;13.588;2023-02-01T01:57:05;3.70;92.73
68977;SHT31;56029;52.568;13.588;2023-02-01T01:59:33;3.80;91.97
68977;SHT31;56029;52.568;13.588;2023-02-01T02:02:01;3.85;91.81
68977;SHT31;56029;52.568;13.588;2023-02-01T02:04:26;3.90;91.88
68977;SHT31;56029;52.568;13.588;2023-02-01T02:07:04;3.91;91.18
68977;SHT31;56029;52.568;13.588;2023-02-01T02:09:30;3.90;91.69
68977;SHT31;56029;52.568;13.588;2023-02-01T02:11:56;3.90;91.87
68977;SHT31;56029;52.568;13.588;2023-02-01T02:14:23;3.96;91.74
68977;SHT31;56029;52.568;13.588;2023-02-01T02:25:40;3.96;90.74
68977;SHT31;56029;52.568;13.588;2023-02-01T02:31:26;3.94;90.78
68977;SHT31;56029;52.568;13.588;2023-02-01T02:37:25;3.94;90.50
68977;SHT31;56029;52.568;13.588;2023-02-01T02:42:03;3.91;90.72
68977;SHT31;56029;52.568;13.588;2023-02-01T02:44:54;3.87;90.86
68977;SHT31;56029;52.568;13.588;2023-02-01T02:48:19;4.00;90.27
68977;SHT31;56029;52.568;13.588;2023-02-01T02:51:04;3.99;90.52
68977;SHT31;56029;52.568;13.588;2023-02-01T02:54:11;4.03;90.53
68977;SHT31;56029;52.568;13.588;2023-02-01T02:56:58;4.00;90.45
68977;SHT31;56029;52.568;13.588;2023-02-01T02:59:44;4.01;90.64
68977;SHT31;56029;52.568;13.588;2023-02-01T03:02:30;3.97;90.57
68977;SHT31;56029;52.568;13.588;2023-02-01T03:05:15;3.93;91.01
68977;SHT31;56029;52.568;13.588;2023-02-01T03:10:17;3.96;90.60
68977;SHT31;56029;52.568;13.588;2023-02-01T03:12:49;3.93;91.05
68977;SHT31;56029;52.568;13.588;2023-02-01T03:15:24;3.90;91.15
68977;SHT31;56029;52.568;13.588;2023-02-01T03:17:55;3.85;91.35
68977;SHT31;56029;52.568;13.588;2023-02-01T03:20:22;3.93;90.83
68977;SHT31;56029;52.568;13.588;2023-02-01T03:22:49;3.91;90.99
68977;SHT31;56029;52.568;13.588;2023-02-01T03:25:21;3.89;91.24
68977;SHT31;56029;52.568;13.588;2023-02-01T03:27:52;3.89;91.13
68977;SHT31;56029;52.568;13.588;2023-02-01T03:30:44;3.90;91.07
68977;SHT31;56029;52.568;13.588;2023-02-01T03:33:16;3.87;91.18
68977;SHT31;56029;52.568;13.588;2023-02-01T03:35:56;3.91;91.52
68977;SHT31;56029;52.568;13.588;2023-02-01T03:38:52;3.85;91.28
68977;SHT31;56029;52.568;13.588;2023-02-01T03:41:28;3.87;91.34
68977;SHT31;56029;52.568;13.588;2023-02-01T03:43:58;3.94;91.07
68977;SHT31;56029;52.568;13.588;2023-02-01T03:49:19;3.89;91.47
68977;SHT31;56029;52.568;13.588;2023-02-01T03:51:46;3.93;91.32
68977;SHT31;56029;52.568;13.588;2023-02-01T03:54:14;3.97;90.66
68977;SHT31;56029;52.568;13.588;2023-02-01T03:56:42;4.00;90.78
68977;SHT31;56029;52.568;13.588;2023-02-01T03:59:10;3.97;90.82
68977;SHT31;56029;52.568;13.588;2023-02-01T04:01:36;3.94;90.87
68977;SHT31;56029;52.568;13.588;2023-02-01T04:04:01;3.93;91.02
68977;SHT31;56029;52.568;13.588;2023-02-01T04:06:27;4.00;90.66
68977;SHT31;56029;52.568;13.588;2023-02-01T04:08:52;3.99;90.85
68977;SHT31;56029;52.568;13.588;2023-02-01T04:11:18;4.03;90.40
68977;SHT31;56029;52.568;13.588;2023-02-01T04:13:44;4.04;90.54
68977;SHT31;56029;52.568;13.588;2023-02-01T04:16:10;4.07;90.15
68977;SHT31;56029;52.568;13.588;2023-02-01T04:18:36;4.06;90.84
68977;SHT31;56029;52.568;13.588;2023-02-01T04:21:02;4.10;90.54
68977;SHT31;56029;52.568;13.588;2023-02-01T04:23:28;4.14;90.32
68977;SHT31;56029;52.568;13.588;2023-02-01T04:25:59;4.16;90.31
68977;SHT31;56029;52.568;13.588;2023-02-01T04:28:25;4.13;90.55
68977;SHT31;56029;52.568;13.588;2023-02-01T04:30:51;4.16;90.39
68977;SHT31;56029;52.568;13.588;2023-02-01T04:33:16;4.21;90.22
68977;SHT31;56029;52.568;13.588;2023-02-01T04:35:42;4.24;90.16
68977;SHT31;56029;52.568;13.588;2023-02-01T04:38:07;4.28;90.13
68977;SHT31;56029;52.568;13.588;2023-02-01T04:40:33;4.28;90.19
68977;SHT31;56029;52.568;13.588;2023-02-01T04:43:00;4.33;89.70
68977;SHT31;56029;52.568;13.588;2023-02-01T04:45:26;4.31;90.18
68977;SHT31;56029;52.568;13.588;2023-02-01T04:47:52;4.33;90.10
68977;SHT31;56029;52.568;13.588;2023-02-01T04:50:17;4.25;90.36
68977;SHT31;56029;52.568;13.588;2023-02-01T04:52:43;4.37;89.93
68977;SHT31;56029;52.568;13.588;2023-02-01T04:55:10;4.41;89.75
68977;SHT31;56029;52.568;13.588;2023-02-01T04:57:36;4.48;89.34
68977;SHT31;56029;52.568;13.588;2023-02-01T05:00:05;4.47;89.46
68977;SHT31;56029;52.568;13.588;2023-02-01T05:02:31;4.40;89.90
68977;SHT31;56029;52.568;13.588;2023-02-01T05:04:57;4.48;89.60
68977;SHT31;56029;52.568;13.588;2023-02-01T05:07:23;4.54;89.29
68977;SHT31;56029;52.568;13.588;2023-02-01T05:09:49;4.51;89.58
68977;SHT31;56029;52.568;13.588;2023-02-01T05:12:15;4.57;89.20
68977;SHT31;56029;52.568;13.588;2023-02-01T05:14:59;4.54;90.06
68977;SHT31;56029;52.568;13.588;2023-02-01T05:17:25;4.57;90.03
68977;SHT31;56029;52.568;13.588;2023-02-01T05:19:50;4.62;89.40
68977;SHT31;56029;52.568;13.588;2023-02-01T05:22:16;4.65;89.09
68977;SHT31;56029;52.568;13.588;2023-02-01T05:24:41;4.61;89.49
68977;SHT31;56029;52.568;13.588;2023-02-01T05:27:07;4.64;89.32
68977;SHT31;56029;52.568;13.588;2023-02-01T05:29:32;4.61;89.70
68977;SHT31;56029;52.568;13.588;2023-02-01T05:31:58;4.69;88.72
68977;SHT31;56029;52.568;13.588;2023-02-01T05:34:23;4.71;89.00
68977;SHT31;56029;52.568;13.588;2023-02-01T05:36:49;4.75;88.79
68977;SHT31;56029;52.568;13.588;2023-02-01T05:39:14;4.79;88.13
68977;SHT31;56029;52.568;13.588;2023-02-01T05:41:40;4.89;87.66
68977;SHT31;56029;52.568;13.588;2023-02-01T05:44:05;4.89;87.87
68977;SHT31;56029;52.568;13.588;2023-02-01T05:46:34;4.85;88.17
68977;SHT31;56029;52.568;13.588;2023-02-01T05:48:59;4.85;87.82
68977;SHT31;56029;52.568;13.588;2023-02-01T05:51:25;4.86;88.08
68977;SHT31;56029;52.568;13.588;2023-02-01T05:53:50;4.89;87.76
68977;SHT31;56029;52.568;13.588;2023-02-01T05:56:16;4.90;87.88
68977;SHT31;56029;52.568;13.588;2023-02-01T05:58:41;4.85;88.15
68977;SHT31;56029;52.568;13.588;2023-02-01T06:01:07;4.89;87.80
68977;SHT31;56029;52.568;13.588;2023-02-01T06:03:32;4.92;87.71
68977;SHT31;56029;52.568;13.588;2023-02-01T06:05:58;4.87;88.34
68977;SHT31;56029;52.568;13.588;2023-02-01T06:08:25;4.93;87.77
68977;SHT31;56029;52.568;13.588;2023-02-01T06:11:02;4.87;88.14
68977;SHT31;56029;52.568;13.588;2023-02-01T06:13:28;4.86;88.52
68977;SHT31;56029;52.568;13.588;2023-02-01T06:15:54;4.87;88.00
68977;SHT31;56029;52.568;13.588;2023-02-01T06:18:21;4.93;87.64
68977;SHT31;56029;52.568;13.588;2023-02-01T06:20:52;4.89;88.07
68977;SHT31;56029;52.568;13.588;2023-02-01T06:23:17;4.90;88.28
68977;SHT31;56029;52.568;13.588;2023-02-01T06:25:43;4.92;88.48
68977;SHT31;56029;52.568;13.588;2023-02-01T06:28:10;4.83;89.42
68977;SHT31;56029;52.568;13.588;2023-02-01T06:30:36;4.72;90.37
68977;SHT31;56029;52.568;13.588;2023-02-01T06:33:01;4.69;90.65
68977;SHT31;56029;52.568;13.588;2023-02-01T06:35:27;4.62;91.14
68977;SHT31;56029;52.568;13.588;2023-02-01T06:37:52;4.57;91.62
68977;SHT31;56029;52.568;13.588;2023-02-01T06:40:18;4.55;92.19
68977;SHT31;56029;52.568;13.588;2023-02-01T06:42:43;4.48;92.65
68977;SHT31;56029;52.568;13.588;2023-02-01T06:45:09;4.44;92.85
68977;SHT31;56029;52.568;13.588;2023-02-01T06:47:35;4.41;93.14
68977;SHT31;56029;52.568;13.588;2023-02-01T06:50:01;4.38;92.95
68977;SHT31;56029;52.568;13.588;2023-02-01T06:52:26;4.33;93.96
68977;SHT31;56029;52.568;13.588;2023-02-01T06:54:52;4.34;93.75
68977;SHT31;56029;52.568;13.588;2023-02-01T06:57:17;4.34;93.77
68977;SHT31;56029;52.568;13.588;2023-02-01T06:59:43;4.37;94.26
68977;SHT31;56029;52.568;13.588;2023-02-01T07:02:10;4.34;93.88
68977;SHT31;56029;52.568;13.588;2023-02-01T07:04:36;4.36;93.49
68977;SHT31;56029;52.568;13.588;2023-02-01T07:07:05;4.31;93.78
68977;SHT31;56029;52.568;13.588;2023-02-01T07:09:30;4.31;93.89
68977;SHT31;56029;52.568;13.588;2023-02-01T07:11:56;4.36;92.91
68977;SHT31;56029;52.568;13.588;2023-02-01T07:14:22;4.41;92.97
68977;SHT31;56029;52.568;13.588;2023-02-01T07:16:48;4.40;92.96
68977;SHT31;56029;52.568;13.588;2023-02-01T07:19:13;4.42;92.69
68977;SHT31;56029;52.568;13.588;2023-02-01T07:21:39;4.45;91.96
68977;SHT31;56029;52.568;13.588;2023-02-01T07:24:05;4.48;91.77
68977;SHT31;56029;52.568;13.588;2023-02-01T07:26:30;4.52;91.18
68977;SHT31;56029;52.568;13.588;2023-02-01T07:28:56;4.52;91.46
68977;SHT31;56029;52.568;13.588;2023-02-01T07:31:21;4.45;92.39
68977;SHT31;56029;52.568;13.588;2023-02-01T07:33:48;4.49;92.26
68977;SHT31;56029;52.568;13.588;2023-02-01T07:36:17;4.42;92.45
68977;SHT31;56029;52.568;13.588;2023-02-01T07:38:43;4.41;92.52
68977;SHT31;56029;52.568;13.588;2023-02-01T07:41:09;4.48;91.96
68977;SHT31;56029;52.568;13.588;2023-02-01T07:43:35;4.45;92.28
68977;SHT31;56029;52.568;13.588;2023-02-01T07:46:02;4.49;92.43
68977;SHT31;56029;52.568;13.588;2023-02-01T07:48:29;4.54;92.17
68977;SHT31;56029;52.568;13.588;2023-02-01T07:53:24;4.61;91.65
68977;SHT31;56029;52.568;13.588;2023-02-01T07:55:49;4.59;92.40
68977;SHT31;56029;52.568;13.588;2023-02-01T07:58:15;4.54;92.73
68977;SHT31;56029;52.568;13.588;2023-02-01T08:00:41;4.52;93.13
68977;SHT31;56029;52.568;13.588;2023-02-01T08:03:25;4.45;93.35
68977;SHT31;56029;52.568;13.588;2023-02-01T08:05:54;4.34;94.11
68977;SHT31;56029;52.568;13.588;2023-02-01T08:08:21;4.20;94.95
68977;SHT31;56029;52.568;13.588;2023-02-01T08:10:47;4.11;95.83
68977;SHT31;56029;52.568;13.588;2023-02-01T08:13:13;4.04;96.35
68977;SHT31;56029;52.568;13.588;2023-02-01T08:15:38;3.96;96.82
68977;SHT31;56029;52.568;13.588;2023-02-01T08:18:04;3.83;97.22
68977;SHT31;56029;52.568;13.588;2023-02-01T08:20:29;3.72;97.65
68977;SHT31;56029;52.568;13.588;2023-02-01T08:22:55;3.66;97.81
68977;SHT31;56029;52.568;13.588;2023-02-01T08:25:21;3.58;98.79
68977;SHT31;56029;52.568;13.588;2023-02-01T08:27:47;3.52;98.06
68977;SHT31;56029;52.568;13.588;2023-02-01T08:30:13;3.46;99.16
68977;SHT31;56029;52.568;13.588;2023-02-01T08:32:39;3.35;99.55
68977;SHT31;56029;52.568;13.588;2023-02-01T08:35:04;3.34;99.54
68977;SHT31;56029;52.568;13.588;2023-02-01T08:37:30;3.32;99.99
68977;SHT31;56029;52.568;13.588;2023-02-01T08:39:56;3.29;99.95
68977;SHT31;56029;52.568;13.588;2023-02-01T08:42:22;3.27;99.99
68977;SHT31;56029;52.568;13.588;2023-02-01T08:45:06;3.24;99.99
68977;SHT31;56029;52.568;13.588;2023-02-01T08:47:33;3.20;99.99
68977;SHT31;56029;52.568;13.588;2023-02-01T08:49:59;3.20;99.99
68977;SHT31;56029;52.568;13.588;2023-02-01T08:52:25;3.17;99.79
68977;SHT31;56029;52.568;13.588;2023-02-01T08:54:51;3.15;99.99
68977;SHT31;56029;52.568;13.588;2023-02-01T08:57:16;3.15;99.99
68977;SHT31;56029;52.568;13.588;2023-02-01T08:59:42;3.10;99.99
68977;SHT31;56029;52.568;13.588;2023-02-01T09:02:16;3.12;99.99
68977;SHT31;56029;52.568;13.588;2023-02-01T09:04:42;3.18;99.99
68977;SHT31;56029;52.568;13.588;2023-02-01T09:07:08;3.21;99.99
68977;SHT31;56029;52.568;13.588;2023-02-01T09:09:34;3.20;99.99
68977;SHT31;56029;52.568;13.588;2023-02-01T09:12:00;3.21;99.99
68977;SHT31;56029;52.568;13.588;2023-02-01T09:14:25;3.25;99.99
68977;SHT31;56029;52.568;13.588;2023-02-01T09:16:51;3.28;99.99
68977;SHT31;56029;52.568;13.588;2023-02-01T09:19:16;3.27;99.99
68977;SHT31;56029;52.568;13.588;2023-02-01T09:21:42;3.31;99.99
68977;SHT31;56029;52.568;13.588;2023-02-01T09:24:10;3.32;99.99
68977;SHT31;56029;52.568;13.588;2023-02-01T09:26:36;3.43;99.99
68977;SHT31;56029;52.568;13.588;2023-02-01T09:29:02;3.52;99.99
68977;SHT31;56029;52.568;13.588;2023-02-01T09:31:29;3.63;99.99
68977;SHT31;56029;52.568;13.588;2023-02-01T09:33:56;3.73;99.19
68977;SHT31;56029;52.568;13.588;2023-02-01T09:36:21;3.73;98.98
68977;SHT31;56029;52.568;13.588;2023-02-01T09:38:49;3.76;99.46
68977;SHT31;56029;52.568;13.588;2023-02-01T09:41:31;3.76;99.56
68977;SHT31;56029;52.568;13.588;2023-02-01T09:46:41;3.85;99.19
68977;SHT31;56029;52.568;13.588;2023-02-01T09:49:13;3.87;98.85
68977;SHT31;56029;52.568;13.588;2023-02-01T09:51:46;3.89;98.65
68977;SHT31;56029;52.568;13.588;2023-02-01T09:54:18;3.96;98.36
68977;SHT31;56029;52.568;13.588;2023-02-01T09:56:48;3.94;97.77
68977;SHT31;56029;52.568;13.588;2023-02-01T10:02:02;4.07;97.97
68977;SHT31;56029;52.568;13.588;2023-02-01T10:04:29;4.07;96.65
68977;SHT31;56029;52.568;13.588;2023-02-01T10:07:12;4.07;97.12
68977;SHT31;56029;52.568;13.588;2023-02-01T10:09:50;4.14;96.45
68977;SHT31;56029;52.568;13.588;2023-02-01T10:12:41;4.16;96.21
68977;SHT31;56029;52.568;13.588;2023-02-01T10:18:24;4.11;96.60
68977;SHT31;56029;52.568;13.588;2023-02-01T10:24:06;4.10;95.99
68977;SHT31;56029;52.568;13.588;2023-02-01T10:26:40;4.14;96.60
68977;SHT31;56029;52.568;13.588;2023-02-01T10:29:16;4.11;96.04
68977;SHT31;56029;52.568;13.588;2023-02-01T10:31:43;4.01;96.72
68977;SHT31;56029;52.568;13.588;2023-02-01T10:34:21;4.00;97.36
68977;SHT31;56029;52.568;13.588;2023-02-01T10:36:54;3.97;97.82
68977;SHT31;56029;52.568;13.588;2023-02-01T10:39:21;3.96;97.38
68977;SHT31;56029;52.568;13.588;2023-02-01T10:41:47;4.04;97.72
68977;SHT31;56029;52.568;13.588;2023-02-01T10:44:25;4.13;97.42
68977;SHT31;56029;52.568;13.588;2023-02-01T10:46:51;4.34;96.98
68977;SHT31;56029;52.568;13.588;2023-02-01T10:49:21;4.45;96.46
68977;SHT31;56029;52.568;13.588;2023-02-01T10:52:02;4.51;96.31
68977;SHT31;56029;52.568;13.588;2023-02-01T10:54:36;4.49;95.47
68977;SHT31;56029;52.568;13.588;2023-02-01T10:57:25;4.51;95.74
68977;SHT31;56029;52.568;13.588;2023-02-01T10:59:53;4.52;96.44
68977;SHT31;56029;52.568;13.588;2023-02-01T11:02:29;4.48;95.70
68977;SHT31;56029;52.568;13.588;2023-02-01T11:05:09;4.44;95.50
68977;SHT31;56029;52.568;13.588;2023-02-01T11:07:46;4.41;96.33
68977;SHT31;56029;52.568;13.588;2023-02-01T11:10:35;4.38;96.41
68977;SHT31;56029;52.568;13.588;2023-02-01T11:13:03;4.48;96.62
68977;SHT31;56029;52.568;13.588;2023-02-01T11:15:29;4.61;96.60
68977;SHT31;56029;52.568;13.588;2023-02-01T11:17:55;4.69;95.36
68977;SHT31;56029;52.568;13.588;2023-02-01T11:20:39;4.65;95.86
68977;SHT31;56029;52.568;13.588;2023-02-01T11:23:13;4.78;95.67
68977;SHT31;56029;52.568;13.588;2023-02-01T11:25:47;4.92;95.10
68977;SHT31;56029;52.568;13.588;2023-02-01T11:28:14;4.95;94.77
68977;SHT31;56029;52.568;13.588;2023-02-01T11:30:43;4.92;95.31
68977;SHT31;56029;52.568;13.588;2023-02-01T11:33:14;4.90;95.00
68977;SHT31;56029;52.568;13.588;2023-02-01T11:35:41;5.09;96.21
68977;SHT31;56029;52.568;13.588;2023-02-01T11:38:36;5.23;95.25
68977;SHT31;56029;52.568;13.588;2023-02-01T11:41:22;5.22;94.43
68977;SHT31;56029;52.568;13.588;2023-02-01T11:43:56;5.26;94.47
68977;SHT31;56029;52.568;13.588;2023-02-01T11:46:28;5.16;93.18
68977;SHT31;56029;52.568;13.588;2023-02-01T11:48:56;5.24;93.75
68977;SHT31;56029;52.568;13.588;2023-02-01T11:54:38;5.36;92.45
68977;SHT31;56029;52.568;13.588;2023-02-01T11:57:39;5.47;93.10
68977;SHT31;56029;52.568;13.588;2023-02-01T12:00:31;5.68;93.06
68977;SHT31;56029;52.568;13.588;2023-02-01T12:03:29;5.72;92.53
68977;SHT31;56029;52.568;13.588;2023-02-01T12:11:51;5.64;91.92
68977;SHT31;56029;52.568;13.588;2023-02-01T12:14:33;5.64;91.55
68977;SHT31;56029;52.568;13.588;2023-02-01T12:20:43;5.88;90.60
68977;SHT31;56029;52.568;13.588;2023-02-01T12:23:36;5.91;89.91
68977;SHT31;56029;52.568;13.588;2023-02-01T12:43:20;5.94;87.65
68977;SHT31;56029;52.568;13.588;2023-02-01T12:45:58;5.89;88.15
68977;SHT31;56029;52.568;13.588;2023-02-01T12:48:32;5.82;88.43
68977;SHT31;56029;52.568;13.588;2023-02-01T12:51:04;5.72;89.77
68977;SHT31;56029;52.568;13.588;2023-02-01T12:54:00;5.48;91.57
68977;SHT31;56029;52.568;13.588;2023-02-01T12:56:34;5.40;92.32
68977;SHT31;56029;52.568;13.588;2023-02-01T12:59:04;5.34;92.32
68977;SHT31;56029;52.568;13.588;2023-02-01T13:01:39;5.33;92.46
68977;SHT31;56029;52.568;13.588;2023-02-01T13:04:19;5.01;93.53
68977;SHT31;56029;52.568;13.588;2023-02-01T13:06:48;3.42;97.12
68977;SHT31;56029;52.568;13.588;2023-02-01T13:09:42;1.67;99.16
68977;SHT31;56029;52.568;13.588;2023-02-01T13:12:14;1.19;99.38
68977;SHT31;56029;52.568;13.588;2023-02-01T13:14:58;0.89;99.50
68977;SHT31;56029;52.568;13.588;2023-02-01T13:17:31;0.73;99.56
68977;SHT31;56029;52.568;13.588;2023-02-01T13:20:05;0.81;99.66
68977;SHT31;56029;52.568;13.588;2023-02-01T13:22:38;0.70;99.65
68977;SHT31;56029;52.568;13.588;2023-02-01T13:27:35;0.87;99.74
68977;SHT31;56029;52.568;13.588;2023-02-01T13:30:05;0.96;99.83
68977;SHT31;56029;52.568;13.588;2023-02-01T13:33:05;1.06;99.81
68977;SHT31;56029;52.568;13.588;2023-02-01T13:35:55;1.18;99.85
68977;SHT31;56029;52.568;13.588;2023-02-01T13:43:59;1.54;99.95
68977;SHT31;56029;52.568;13.588;2023-02-01T13:46:27;1.63;99.94
68977;SHT31;56029;52.568;13.588;2023-02-01T13:48:55;1.75;99.97
68977;SHT31;56029;52.568;13.588;2023-02-01T13:51:38;1.91;99.99
68977;SHT31;56029;52.568;13.588;2023-02-01T13:54:06;2.04;99.99
68977;SHT31;56029;52.568;13.588;2023-02-01T13:56:42;2.12;99.99
68977;SHT31;56029;52.568;13.588;2023-02-01T14:05:54;2.86;99.99
68977;SHT31;56029;52.568;13.588;2023-02-01T14:10:57;3.38;99.99
68977;SHT31;56029;52.568;13.588;2023-02-01T14:13:34;3.55;99.99
68977;SHT31;56029;52.568;13.588;2023-02-01T14:21:27;4.01;99.99
68977;SHT31;56029;52.568;13.588;2023-02-01T14:31:52;4.01;99.99
68977;SHT31;56029;52.568;13.588;2023-02-01T14:36:59;3.69;99.99
68977;SHT31;56029;52.568;13.588;2023-02-01T14:42:26;3.78;99.81
68977;SHT31;56029;52.568;13.588;2023-02-01T14:47:39;3.96;99.87
68977;SHT31;56029;52.568;13.588;2023-02-01T14:50:27;3.94;99.99
68977;SHT31;56029;52.568;13.588;2023-02-01T14:59:00;4.14;99.99
68977;SHT31;56029;52.568;13.588;2023-02-01T15:01:32;4.18;99.99
68977;SHT31;56029;52.568;13.588;2023-02-01T15:04:09;4.31;99.98
68977;SHT31;56029;52.568;13.588;2023-02-01T15:06:48;4.37;99.99
68977;SHT31;56029;52.568;13.588;2023-02-01T15:09:23;4.49;99.63
68977;SHT31;56029;52.568;13.588;2023-02-01T15:11:58;4.51;99.18
68977;SHT31;56029;52.568;13.588;2023-02-01T15:14:26;4.51;99.03
68977;SHT31;56029;52.568;13.588;2023-02-01T15:16:52;4.54;99.63
68977;SHT31;56029;52.568;13.588;2023-02-01T15:19:25;4.59;98.50
68977;SHT31;56029;52.568;13.588;2023-02-01T15:21:53;4.57;98.76
68977;SHT31;56029;52.568;13.588;2023-02-01T15:24:30;4.62;97.20
68977;SHT31;56029;52.568;13.588;2023-02-01T15:27:02;4.64;97.90
68977;SHT31;56029;52.568;13.588;2023-02-01T15:29:29;4.49;98.12
68977;SHT31;56029;52.568;13.588;2023-02-01T15:31:58;4.41;98.60
68977;SHT31;56029;52.568;13.588;2023-02-01T15:34:47;4.33;98.88
68977;SHT31;56029;52.568;13.588;2023-02-01T15:37:15;4.24;98.49
68977;SHT31;56029;52.568;13.588;2023-02-01T15:40:33;4.14;98.22
68977;SHT31;56029;52.568;13.588;2023-02-01T15:42:53;4.04;98.24
68977;SHT31;56029;52.568;13.588;2023-02-01T15:45:20;3.94;99.26
68977;SHT31;56029;52.568;13.588;2023-02-01T15:47:50;3.87;99.56
68977;SHT31;56029;52.568;13.588;2023-02-01T15:50:19;3.78;99.99
68977;SHT31;56029;52.568;13.588;2023-02-01T15:52:50;3.72;99.71
68977;SHT31;56029;52.568;13.588;2023-02-01T15:55:40;3.66;99.99
68977;SHT31;56029;52.568;13.588;2023-02-01T15:58:13;3.59;99.99
68977;SHT31;56029;52.568;13.588;2023-02-01T16:00:55;3.54;99.99
68977;SHT31;56029;52.568;13.588;2023-02-01T16:03:27;3.45;99.99
68977;SHT31;56029;52.568;13.588;2023-02-01T16:05:58;3.38;99.99
68977;SHT31;56029;52.568;13.588;2023-02-01T16:08:27;3.27;99.99
68977;SHT31;56029;52.568;13.588;2023-02-01T16:11:00;3.14;99.99
68977;SHT31;56029;52.568;13.588;2023-02-01T16:13:27;2.93;99.99
68977;SHT31;56029;52.568;13.588;2023-02-01T16:15:52;2.79;99.99
68977;SHT31;56029;52.568;13.588;2023-02-01T16:18:18;2.66;99.99
68977;SHT31;56029;52.568;13.588;2023-02-01T16:20:43;2.49;99.99
68977;SHT31;56029;52.568;13.588;2023-02-01T16:23:10;2.48;99.99
68977;SHT31;56029;52.568;13.588;2023-02-01T16:25:36;2.43;99.99
68977;SHT31;56029;52.568;13.588;2023-02-01T16:28:03;2.39;99.99
68977;SHT31;56029;52.568;13.588;2023-02-01T16:30:30;2.42;99.99
68977;SHT31;56029;52.568;13.588;2023-02-01T16:32:58;2.48;99.99
68977;SHT31;56029;52.568;13.588;2023-02-01T16:35:26;2.46;99.99
68977;SHT31;56029;52.568;13.588;2023-02-01T16:37:53;2.43;99.99
68977;SHT31;56029;52.568;13.588;2023-02-01T16:40:19;2.42;99.99
68977;SHT31;56029;52.568;13.588;2023-02-01T16:42:50;2.43;99.99
68977;SHT31;56029;52.568;13.588;2023-02-01T16:45:16;2.46;99.99
68977;SHT31;56029;52.568;13.588;2023-02-01T16:47:48;2.48;99.99
68977;SHT31;56029;52.568;13.588;2023-02-01T16:50:24;2.50;99.99
68977;SHT31;56029;52.568;13.588;2023-02-01T16:52:51;2.49;99.99
68977;SHT31;56029;52.568;13.588;2023-02-01T16:55:19;2.50;99.99
68977;SHT31;56029;52.568;13.588;2023-02-01T16:57:47;2.48;99.99
68977;SHT31;56029;52.568;13.588;2023-02-01T17:00:13;2.46;99.99
68977;SHT31;56029;52.568;13.588;2023-02-01T17:02:41;2.46;99.99
68977;SHT31;56029;52.568;13.588;2023-02-01T17:05:08;2.41;99.99
68977;SHT31;56029;52.568;13.588;2023-02-01T17:07:35;2.38;99.99
68977;SHT31;56029;52.568;13.588;2023-02-01T17:10:01;2.41;99.99
68977;SHT31;56029;52.568;13.588;2023-02-01T17:12:30;2.43;99.99
68977;SHT31;56029;52.568;13.588;2023-02-01T17:14:56;2.46;99.99
68977;SHT31;56029;52.568;13.588;2023-02-01T17:17:24;2.50;99.99
68977;SHT31;56029;52.568;13.588;2023-02-01T17:19:50;2.53;99.99
68977;SHT31;56029;52.568;13.588;2023-02-01T17:22:19;2.56;99.99
68977;SHT31;56029;52.568;13.588;2023-02-01T17:24:45;2.56;99.99
68977;SHT31;56029;52.568;13.588;2023-02-01T17:27:10;2.60;99.99
68977;SHT31;56029;52.568;13.588;2023-02-01T17:29:36;2.62;99.99
68977;SHT31;56029;52.568;13.588;2023-02-01T17:32:02;2.64;99.99
68977;SHT31;56029;52.568;13.588;2023-02-01T17:34:28;2.64;99.99
68977;SHT31;56029;52.568;13.588;2023-02-01T17:36:53;2.67;99.99
68977;SHT31;56029;52.568;13.588;2023-02-01T17:39:19;2.73;99.99
68977;SHT31;56029;52.568;13.588;2023-02-01T17:42:04;2.73;99.99